Pulpca — PHMT — position and weather

sailwx.info

Track history (hours):
 
Tides and Currents Weather Stations Pressure Air Temp Water Temp Dewpoint Dewpoint Depression Visibility Wind Speed Wind Dir Waves Ship Positions

Pulpca

Last reported at 2015-Jan-30 16:33 UTC. Time now 2015-Jan-30 17:02 UTC.
Position N 59°48' E 022°58'.

Length 205 m; draft 6.7 m.

Type: Ship (hazmat cat A). MMSI: 245097000.

Date/timePositionNaut miles runAvg speedWind from/ knotsBaromVisibWave heightAir tempDewpointWater temp
2015-Jan-30 16:33N 59°48' E 022°58'2019.6
2015-Jan-30 15:33N 59°35' E 023°26'18 2.8
2015-Jan-30 09:24N 59°47' E 023°00'4 0.7
2015-Jan-30 03:33N 59°43' E 023°05'34518.2
2015-Jan-29 08:33N 55°39' E 015°26'1818.4
2015-Jan-29 07:33N 55°30' E 014°59'1918.6
2015-Jan-29 06:33N 55°19' E 014°32'1818.3
2015-Jan-29 05:33N 55°05' E 014°11'1918.3
2015-Jan-29 04:32N 54°56' E 013°43'1818.3
2015-Jan-29 03:33N 54°50' E 013°13'1918.6
2015-Jan-29 02:33N 54°44' E 012°43'1918.7
2015-Jan-29 01:33N 54°32' E 012°18'1918.8
2015-Jan-29 00:33N 54°20' E 011°53'1918.7
2015-Jan-28 23:33N 54°12' E 011°25'10 0.5
2015-Jan-28 03:26N 54°07' E 011°09'1517.1
2015-Jan-28 02:33N 54°15' E 011°30'1817.8
2015-Jan-28 01:33N 54°25' E 011°56'1514.5
2015-Jan-28 00:33N 54°34' E 012°15'1716.9
2015-Jan-27 23:33N 54°45' E 012°38'1817.2
2015-Jan-27 22:32N 54°52' E 013°06'1717.3
2015-Jan-27 21:33N 54°59' E 013°33'3517.3
2015-Jan-27 19:32N 55°18' E 014°24'1717.0
2015-Jan-27 18:33N 55°29' E 014°46'2117.3
2015-Jan-27 17:22N 55°39' E 015°18'35017.3
2015-Jan-26 21:10N 59°48' E 022°59'1 0.0
2015-Jan-25 17:13N 59°49' E 022°57'34320.5
2015-Jan-25 00:30N 55°39' E 015°36'2021.6
2015-Jan-24 23:34N 55°29' E 015°04'2120.8
2015-Jan-24 22:34N 55°18' E 014°33'2221.6
2015-Jan-24 21:33N 55°02' E 014°08'2121.5
2015-Jan-24 20:34N 54°55' E 013°33'2121.4
2015-Jan-24 19:33N 54°48' E 012°58'2020.3
2015-Jan-24 18:33N 54°38' E 012°26'1919.1
2015-Jan-24 17:33N 54°24' E 012°04'2020.5
2015-Jan-24 16:33N 54°15' E 011°33'2120.9
2015-Jan-24 15:33N 54°03' E 011°03'4 0.3
2015-Jan-24 02:33N 54°06' E 011°08'1716.8
2015-Jan-24 01:33N 54°16' E 011°31'1717.1
2015-Jan-24 00:33N 54°25' E 011°56'1515.4
2015-Jan-23 23:33N 54°35' E 012°16'1818.0
2015-Jan-23 22:33N 54°46' E 012°41'1817.6
2015-Jan-23 21:33N 54°53' E 013°08'1817.9
2015-Jan-23 20:33N 54°59' E 013°38'3517.2
2015-Jan-23 18:33N 55°19' E 014°27'1817.6
2015-Jan-23 17:33N 55°30' E 014°50'1817.9
2015-Jan-23 16:33N 55°39' E 015°18'34317.9
2015-Jan-22 21:22N 59°39' E 022°56'1010.4
2015-Jan-22 20:26N 59°48' E 022°57'1 0.0
2015-Jan-22 04:12N 59°49' E 022°56'1111.7
2015-Jan-22 03:17N 59°38' E 022°60'33818.9
2015-Jan-21 09:25N 55°39' E 015°34'1719.8
2015-Jan-21 08:33N 55°32' E 015°07'2019.7
2015-Jan-21 07:34N 55°21' E 014°38'1919.3
2015-Jan-21 06:33N 55°07' E 014°15'1919.2
2015-Jan-21 05:33N 54°57' E 013°46'2019.6
2015-Jan-21 04:33N 54°51' E 013°14'2019.7
2015-Jan-21 03:33N 54°44' E 012°42'1919.3
2015-Jan-21 02:33N 54°32' E 012°16'1817.9
2015-Jan-21 01:33N 54°20' E 011°53'1919.4
2015-Jan-21 00:33N 54°11' E 011°23'  
Track history (hours):
 
Tides and Currents Weather Stations Pressure Air Temp Water Temp Dewpoint Dewpoint Depression Visibility Wind Speed Wind Dir Waves Ship Positions

Pulpca

Last reported at 2015-Jan-30 16:33 UTC. Time now 2015-Jan-30 17:02 UTC.
Position N 59°48' E 022°58'.

Length 205 m; draft 6.7 m.

Type: Ship (hazmat cat A). MMSI: 245097000.

Date/timePositionNaut miles runAvg speedWind from/ knotsBaromVisibWave heightAir tempDewpointWater temp
2015-Jan-30 16:33N 59°48' E 022°58'2019.6
2015-Jan-30 15:33N 59°35' E 023°26'18 2.8
2015-Jan-30 09:24N 59°47' E 023°00'4 0.7
2015-Jan-30 03:33N 59°43' E 023°05'34518.2
2015-Jan-29 08:33N 55°39' E 015°26'1818.4
2015-Jan-29 07:33N 55°30' E 014°59'1918.6
2015-Jan-29 06:33N 55°19' E 014°32'1818.3
2015-Jan-29 05:33N 55°05' E 014°11'1918.3
2015-Jan-29 04:32N 54°56' E 013°43'1818.3
2015-Jan-29 03:33N 54°50' E 013°13'1918.6
2015-Jan-29 02:33N 54°44' E 012°43'1918.7
2015-Jan-29 01:33N 54°32' E 012°18'1918.8
2015-Jan-29 00:33N 54°20' E 011°53'1918.7
2015-Jan-28 23:33N 54°12' E 011°25'10 0.5
2015-Jan-28 03:26N 54°07' E 011°09'1517.1
2015-Jan-28 02:33N 54°15' E 011°30'1817.8
2015-Jan-28 01:33N 54°25' E 011°56'1514.5
2015-Jan-28 00:33N 54°34' E 012°15'1716.9
2015-Jan-27 23:33N 54°45' E 012°38'1817.2
2015-Jan-27 22:32N 54°52' E 013°06'1717.3
2015-Jan-27 21:33N 54°59' E 013°33'3517.3
2015-Jan-27 19:32N 55°18' E 014°24'1717.0
2015-Jan-27 18:33N 55°29' E 014°46'2117.3
2015-Jan-27 17:22N 55°39' E 015°18'35017.3
2015-Jan-26 21:10N 59°48' E 022°59'1 0.0
2015-Jan-25 17:13N 59°49' E 022°57'34320.5
2015-Jan-25 00:30N 55°39' E 015°36'2021.6
2015-Jan-24 23:34N 55°29' E 015°04'2120.8
2015-Jan-24 22:34N 55°18' E 014°33'2221.6
2015-Jan-24 21:33N 55°02' E 014°08'2121.5
2015-Jan-24 20:34N 54°55' E 013°33'2121.4
2015-Jan-24 19:33N 54°48' E 012°58'2020.3
2015-Jan-24 18:33N 54°38' E 012°26'1919.1
2015-Jan-24 17:33N 54°24' E 012°04'2020.5
2015-Jan-24 16:33N 54°15' E 011°33'2120.9
2015-Jan-24 15:33N 54°03' E 011°03'4 0.3
2015-Jan-24 02:33N 54°06' E 011°08'1716.8
2015-Jan-24 01:33N 54°16' E 011°31'1717.1
2015-Jan-24 00:33N 54°25' E 011°56'1515.4
2015-Jan-23 23:33N 54°35' E 012°16'1818.0
2015-Jan-23 22:33N 54°46' E 012°41'1817.6
2015-Jan-23 21:33N 54°53' E 013°08'1817.9
2015-Jan-23 20:33N 54°59' E 013°38'3517.2
2015-Jan-23 18:33N 55°19' E 014°27'1817.6
2015-Jan-23 17:33N 55°30' E 014°50'1817.9
2015-Jan-23 16:33N 55°39' E 015°18'34317.9
2015-Jan-22 21:22N 59°39' E 022°56'1010.4
2015-Jan-22 20:26N 59°48' E 022°57'1 0.0
2015-Jan-22 04:12N 59°49' E 022°56'1111.7
2015-Jan-22 03:17N 59°38' E 022°60'33818.9
2015-Jan-21 09:25N 55°39' E 015°34'1719.8
2015-Jan-21 08:33N 55°32' E 015°07'2019.7
2015-Jan-21 07:34N 55°21' E 014°38'1919.3
2015-Jan-21 06:33N 55°07' E 014°15'1919.2
2015-Jan-21 05:33N 54°57' E 013°46'2019.6
2015-Jan-21 04:33N 54°51' E 013°14'2019.7
2015-Jan-21 03:33N 54°44' E 012°42'1919.3
2015-Jan-21 02:33N 54°32' E 012°16'1817.9
2015-Jan-21 01:33N 54°20' E 011°53'1919.4
2015-Jan-21 00:33N 54°11' E 011°23'  

Dump ship's entire track history